TimeMST,TemperatureF,Dew PointF,Humidity,Sea Level PressureIn,VisibilityMPH,Wind Direction,Wind SpeedMPH,Gust SpeedMPH,PrecipitationIn,Events,Conditions,WindDirDegrees,DateUTC
12:53 AM,37.0,25.0,62,30.32,10.0,Calm,Calm,-,N/A,,Overcast,0,2013-12-14 07:53:00
1:53 AM,39.0,25.0,57,30.32,10.0,West,3.5,-,N/A,,Overcast,270,2013-12-14 08:53:00
2:53 AM,39.9,25.0,55,30.32,10.0,West,12.7,-,N/A,,Overcast,260,2013-12-14 09:53:00
3:53 AM,39.0,24.1,55,30.32,10.0,West,13.8,19.6,N/A,,Clear,270,2013-12-14 10:53:00
4:53 AM,39.0,25.0,57,30.34,10.0,West,11.5,-,N/A,,Mostly Cloudy,260,2013-12-14 11:53:00
5:53 AM,39.9,24.1,53,30.32,10.0,West,20.7,29.9,N/A,,Clear,260,2013-12-14 12:53:00
6:53 AM,41.0,24.1,51,30.35,10.0,WSW,12.7,29.9,N/A,,Mostly Cloudy,250,2013-12-14 13:53:00
7:53 AM,39.9,24.1,53,30.34,10.0,WSW,19.6,28.8,N/A,,Partly Cloudy,250,2013-12-14 14:53:00
8:53 AM,42.1,24.1,49,30.34,10.0,West,9.2,-,N/A,,Mostly Cloudy,260,2013-12-14 15:53:00
9:53 AM,42.1,23.0,47,30.36,10.0,West,15.0,26.5,N/A,,Overcast,270,2013-12-14 16:53:00
10:53 AM,42.1,23.0,47,30.36,10.0,WSW,12.7,17.3,N/A,,Scattered Clouds,250,2013-12-14 17:53:00
11:53 AM,43.0,23.0,45,30.34,10.0,West,12.7,16.1,N/A,,Overcast,270,2013-12-14 18:53:00
12:53 PM,43.0,24.1,47,30.32,10.0,West,20.7,25.3,N/A,,Overcast,270,2013-12-14 19:53:00
1:53 PM,42.1,24.1,49,30.31,10.0,West,10.4,-,N/A,,Overcast,280,2013-12-14 20:53:00
2:53 PM,43.0,24.1,47,30.30,10.0,Variable,5.8,-,N/A,,Overcast,0,2013-12-14 21:53:00
3:53 PM,44.1,26.1,49,30.30,10.0,Variable,6.9,-,N/A,,Mostly Cloudy,0,2013-12-14 22:53:00
4:53 PM,44.1,27.0,51,30.27,10.0,Calm,Calm,-,N/A,,Mostly Cloudy,0,2013-12-14 23:53:00
5:53 PM,46.0,28.0,50,30.24,10.0,West,13.8,21.9,N/A,,Mostly Cloudy,260,2013-12-15 00:53:00
6:53 PM,45.0,28.0,52,30.23,10.0,West,17.3,23.0,N/A,,Overcast,270,2013-12-15 01:53:00
7:53 PM,46.0,27.0,47,30.25,10.0,West,8.1,21.9,N/A,,Overcast,260,2013-12-15 02:53:00
8:53 PM,46.0,28.0,50,30.22,10.0,WSW,17.3,21.9,N/A,,Overcast,250,2013-12-15 03:53:00
9:53 PM,46.9,27.0,46,30.19,10.0,South,3.5,-,N/A,,Mostly Cloudy,170,2013-12-15 04:53:00
10:53 PM,41.0,26.1,55,30.20,10.0,WNW,3.5,-,N/A,,Scattered Clouds,300,2013-12-15 05:53:00
11:53 PM,45.0,23.0,42,30.19,10.0,WSW,5.8,-,N/A,,Mostly Cloudy,250,2013-12-15 06:53:00